createdAt,value
2019-01-20T00:00:29.602Z,101514.37
2019-01-20T00:02:57.950Z,101519.30
2019-01-20T00:05:26.324Z,101514.87
2019-01-20T00:07:54.592Z,101513.62
2019-01-20T00:10:23.007Z,101508.51
2019-01-20T00:12:51.389Z,101518.67
2019-01-20T00:15:21.288Z,101522.41
2019-01-20T00:17:49.598Z,101516.73
2019-01-20T00:20:17.955Z,101520.35
2019-01-20T00:22:46.246Z,101517.84
2019-01-20T00:25:14.509Z,101518.58
2019-01-20T00:27:42.935Z,101516.77
2019-01-20T00:30:18.375Z,101522.47
2019-01-20T00:32:46.760Z,101519.84
2019-01-20T00:35:15.938Z,101515.83
2019-01-20T00:37:44.914Z,101519.05
2019-01-20T00:40:18.577Z,101518.72
2019-01-20T00:42:46.942Z,101520.98
2019-01-20T00:45:17.700Z,101521.83
2019-01-20T00:47:46.119Z,101523.14
2019-01-20T00:50:15.828Z,101521.68
2019-01-20T00:52:44.226Z,101525.11
2019-01-20T00:55:17.864Z,101525.00
2019-01-20T00:57:46.196Z,101528.95
2019-01-20T01:00:24.078Z,101524.89
2019-01-20T01:02:52.397Z,101517.67
2019-01-20T01:05:20.927Z,101518.44
2019-01-20T01:07:50.208Z,101523.36
2019-01-20T01:10:18.551Z,101522.30
2019-01-20T01:12:47.090Z,101527.20
2019-01-20T01:15:15.403Z,101523.66
2019-01-20T01:17:43.799Z,101521.02
2019-01-20T01:20:14.929Z,101519.89
2019-01-20T01:22:43.272Z,101518.95
2019-01-20T01:25:14.187Z,101515.44
2019-01-20T01:27:42.552Z,101514.34
2019-01-20T01:30:16.779Z,101513.42
2019-01-20T01:32:45.095Z,101514.89
2019-01-20T01:35:13.501Z,101515.95
2019-01-20T01:37:41.902Z,101517.27
2019-01-20T01:40:13.003Z,101517.63
2019-01-20T01:42:41.375Z,101515.33
2019-01-20T01:45:15.766Z,101520.00
2019-01-20T01:47:44.095Z,101519.97
2019-01-20T01:50:14.087Z,101525.48
2019-01-20T01:52:42.531Z,101528.11
2019-01-20T01:55:11.925Z,101528.48
2019-01-20T01:57:40.544Z,101524.06
2019-01-20T02:00:12.537Z,101524.80
2019-01-20T02:02:40.969Z,101529.09
2019-01-20T02:05:09.913Z,101527.56
2019-01-20T02:07:38.325Z,101530.56
2019-01-20T02:10:15.270Z,101529.97
2019-01-20T02:12:43.591Z,101531.06
2019-01-20T02:15:14.216Z,101530.23
2019-01-20T02:17:43.778Z,101523.18
2019-01-20T02:20:15.295Z,101526.28
2019-01-20T02:22:43.665Z,101532.74
2019-01-20T02:25:12.053Z,101532.74
2019-01-20T02:27:40.407Z,101537.64
2019-01-20T02:30:14.728Z,101530.00
2019-01-20T02:32:42.995Z,101534.42
2019-01-20T02:35:11.361Z,101529.08
2019-01-20T02:37:39.722Z,101530.28
2019-01-20T02:40:11.699Z,101528.83
2019-01-20T02:42:40.081Z,101532.47
2019-01-20T02:45:11.404Z,101526.62
2019-01-20T02:47:39.719Z,101526.70
2019-01-20T02:50:11.335Z,101529.81
2019-01-20T02:52:39.765Z,101324.31
2019-01-20T02:55:08.092Z,101530.59
2019-01-20T02:57:36.504Z,101530.81
2019-01-20T03:00:08.258Z,101530.81
2019-01-20T03:02:36.523Z,101520.19
2019-01-20T03:05:08.093Z,101525.92
2019-01-20T03:07:36.393Z,101520.66
2019-01-20T03:10:07.568Z,101521.86
2019-01-20T03:12:36.009Z,101523.91
2019-01-20T03:15:07.423Z,101525.50
2019-01-20T03:17:35.766Z,101520.02
2019-01-20T03:20:07.640Z,101519.19
2019-01-20T03:22:36.042Z,101520.14
2019-01-20T03:25:06.783Z,101519.38
2019-01-20T03:27:35.139Z,101516.64
2019-01-20T03:30:05.827Z,101514.63
2019-01-20T03:32:34.164Z,101513.26
2019-01-20T03:35:02.534Z,101516.36
2019-01-20T03:37:30.902Z,101517.90
2019-01-20T03:39:59.196Z,101520.53
2019-01-20T03:42:27.556Z,101517.31
2019-01-20T03:44:56.075Z,101517.94
2019-01-20T03:47:24.338Z,101520.12
2019-01-20T03:49:52.619Z,101520.34
2019-01-20T03:52:21.070Z,101518.69
2019-01-20T03:54:49.326Z,101520.84
2019-01-20T03:57:17.672Z,101522.61
2019-01-20T03:59:48.108Z,101517.83
2019-01-20T04:02:18.081Z,101518.90
2019-01-20T04:04:46.421Z,101518.42
2019-01-20T04:07:14.811Z,101527.48
2019-01-20T04:09:43.162Z,101528.77
2019-01-20T04:12:11.548Z,101525.42
2019-01-20T04:14:39.854Z,101535.17
2019-01-20T04:17:08.257Z,101528.38
2019-01-20T04:19:36.543Z,101532.58
2019-01-20T04:22:04.880Z,101527.57
2019-01-20T04:24:33.192Z,101532.35
2019-01-20T04:27:01.543Z,101530.81
2019-01-20T04:29:29.930Z,101534.02
2019-01-20T04:31:58.248Z,101524.74
2019-01-20T04:34:26.502Z,101527.88
2019-01-20T04:36:54.920Z,101530.38
2019-01-20T04:39:23.273Z,101530.03
2019-01-20T04:41:51.614Z,101528.97
2019-01-20T04:44:19.975Z,101525.66
2019-01-20T04:46:48.329Z,101526.62
2019-01-20T04:49:16.697Z,101527.10
2019-01-20T04:51:45.048Z,101527.80
2019-01-20T04:54:14.009Z,101530.67
2019-01-20T04:56:42.323Z,101533.86
2019-01-20T04:59:10.633Z,101529.42
2019-01-20T05:01:38.933Z,101528.37
2019-01-20T05:04:07.274Z,101528.59
2019-01-20T05:06:35.691Z,101522.61
2019-01-20T05:09:05.589Z,101524.48
2019-01-20T05:11:33.860Z,101525.80
2019-01-20T05:14:02.302Z,101530.22
2019-01-20T05:16:30.639Z,101536.52
2019-01-20T05:18:58.995Z,101537.13
2019-01-20T05:21:27.298Z,101530.09
2019-01-20T05:23:55.608Z,101532.83
2019-01-20T05:26:24.078Z,101535.59
2019-01-20T05:28:52.352Z,101533.69
2019-01-20T05:31:20.713Z,101535.77
2019-01-20T05:33:49.187Z,101536.05
2019-01-20T05:36:17.479Z,101534.51
2019-01-20T05:38:45.800Z,101537.23
2019-01-20T05:41:14.273Z,101532.48
2019-01-20T05:43:42.613Z,101529.01
2019-01-20T05:46:10.979Z,101525.79
2019-01-20T05:48:39.401Z,101533.33
2019-01-20T05:51:07.831Z,101533.56
2019-01-20T05:53:36.171Z,101529.84
2019-01-20T05:56:04.536Z,101530.69
2019-01-20T05:58:33.000Z,101527.82
2019-01-20T06:01:01.431Z,101534.14
2019-01-20T06:03:29.804Z,101534.03
2019-01-20T06:05:58.214Z,101535.44
2019-01-20T06:08:26.787Z,101543.07
2019-01-20T06:10:55.114Z,101545.44
2019-01-20T06:13:23.563Z,101550.35
2019-01-20T06:15:51.889Z,101549.88
2019-01-20T06:18:20.387Z,101555.02
2019-01-20T06:20:48.791Z,101559.67
2019-01-20T06:23:17.262Z,101560.39
2019-01-20T06:25:45.684Z,101554.67
2019-01-20T06:28:13.995Z,101556.48
2019-01-20T06:30:42.255Z,101551.58
2019-01-20T06:33:10.624Z,101558.27
2019-01-20T06:35:38.886Z,101557.89
2019-01-20T06:38:07.157Z,101554.42
2019-01-20T06:40:35.584Z,101565.77
2019-01-20T06:43:03.964Z,101565.30
2019-01-20T06:45:39.180Z,101562.57
2019-01-20T06:48:07.654Z,101572.70
2019-01-20T06:50:36.003Z,101573.88
2019-01-20T06:53:04.601Z,101579.04
2019-01-20T06:55:32.871Z,101577.36
2019-01-20T06:58:01.140Z,101579.27
2019-01-20T07:00:29.630Z,101581.30
2019-01-20T07:02:58.116Z,101585.61
2019-01-20T07:05:26.382Z,101587.88
2019-01-20T07:07:55.758Z,101592.30
2019-01-20T07:10:39.079Z,101584.78
2019-01-20T07:13:10.042Z,101589.66
2019-01-20T07:15:37.476Z,101590.13
2019-01-20T07:18:05.795Z,101591.44
2019-01-20T07:20:34.543Z,101590.50
2019-01-20T07:23:03.270Z,101589.87
2019-01-20T07:25:31.725Z,101591.80
2019-01-20T07:28:00.576Z,101600.98
2019-01-20T07:30:29.440Z,101599.19
2019-01-20T07:32:57.714Z,101609.72
2019-01-20T07:35:26.075Z,101614.36
2019-01-20T07:37:54.462Z,101619.60
2019-01-20T07:40:22.883Z,101620.81
2019-01-20T07:42:51.470Z,101625.92
2019-01-20T07:45:20.234Z,101630.83
2019-01-20T07:47:48.572Z,101632.61
2019-01-20T07:50:19.798Z,101632.95
2019-01-20T07:52:48.148Z,101637.41
2019-01-20T07:55:16.536Z,101636.58
2019-01-20T07:57:45.073Z,101640.63
2019-01-20T08:00:16.416Z,101645.17
2019-01-20T08:02:44.832Z,101650.89
2019-01-20T08:05:13.363Z,101650.76
2019-01-20T08:07:41.947Z,101654.20
2019-01-20T08:10:22.309Z,101659.64
2019-01-20T08:12:50.679Z,101662.59
2019-01-20T08:15:19.044Z,101659.77
2019-01-20T08:17:47.474Z,101658.58
2019-01-20T08:20:22.008Z,101661.47
2019-01-20T08:22:50.408Z,101668.02
2019-01-20T08:25:19.733Z,101666.16
2019-01-20T08:27:48.244Z,101671.53
2019-01-20T08:30:20.050Z,101681.64
2019-01-20T08:32:48.399Z,101680.44
2019-01-20T08:35:16.718Z,101678.95
2019-01-20T08:37:45.381Z,101677.98
2019-01-20T08:40:16.773Z,101678.28
2019-01-20T08:42:45.115Z,101682.97
2019-01-20T08:45:16.815Z,101686.09
2019-01-20T08:47:48.376Z,101687.34
2019-01-20T08:50:16.844Z,101684.41
2019-01-20T08:52:45.249Z,101694.67
2019-01-20T08:55:14.887Z,101696.48
2019-01-20T08:57:43.302Z,101698.61
2019-01-20T09:00:14.786Z,101693.31
2019-01-20T09:02:44.136Z,101699.70
2019-01-20T09:05:13.473Z,101703.59
2019-01-20T09:07:41.882Z,101703.07
2019-01-20T09:10:19.398Z,101709.06
2019-01-20T09:12:48.578Z,101708.30
2019-01-20T09:15:17.057Z,101717.63
2019-01-20T09:17:47.043Z,101721.91
2019-01-20T09:20:15.852Z,101721.73
2019-01-20T09:22:45.311Z,101725.74
2019-01-20T09:25:14.813Z,101723.41
2019-01-20T09:27:43.490Z,101724.23
2019-01-20T09:30:23.684Z,101731.78
2019-01-20T09:32:52.090Z,101727.94
2019-01-20T09:35:20.435Z,101734.44
2019-01-20T09:38:03.472Z,101481.27
2019-01-20T09:40:34.189Z,101743.03
2019-01-20T09:43:07.719Z,101750.72
2019-01-20T09:45:37.234Z,101752.06
2019-01-20T09:48:11.256Z,101753.84
2019-01-20T09:50:39.887Z,101757.30
2019-01-20T09:53:18.995Z,101747.88
2019-01-20T09:55:49.174Z,101758.70
2019-01-20T09:58:19.294Z,101763.70
2019-01-20T10:00:47.909Z,101766.50
2019-01-20T10:03:16.550Z,101780.56
2019-01-20T10:05:48.004Z,101766.50
2019-01-20T10:08:17.136Z,101757.82
2019-01-20T10:10:48.993Z,101763.44
2019-01-20T10:13:18.892Z,101769.16
2019-01-20T10:15:52.563Z,101771.77
2019-01-20T10:18:24.887Z,101775.23
2019-01-20T10:20:54.616Z,101772.98
2019-01-20T10:23:33.581Z,101766.70
2019-01-20T10:26:03.387Z,101769.16
2019-01-20T10:28:32.829Z,101766.80
2019-01-20T10:31:01.328Z,101761.47
2019-01-20T10:33:29.954Z,101767.27
2019-01-20T10:36:02.324Z,101766.05
2019-01-20T10:38:30.699Z,101770.00
2019-01-20T10:40:58.994Z,101771.83
2019-01-20T10:43:28.975Z,101777.73
2019-01-20T10:45:57.454Z,101773.11
2019-01-20T10:48:26.686Z,101776.37
2019-01-20T10:50:55.914Z,101772.30
2019-01-20T10:53:24.265Z,101768.37
2019-01-20T10:55:52.749Z,101763.78
2019-01-20T10:58:21.011Z,101763.55
2019-01-20T11:00:49.418Z,101773.05
2019-01-20T11:03:18.246Z,101773.67
2019-01-20T11:05:46.516Z,101772.69
2019-01-20T11:08:14.909Z,101763.97
2019-01-20T11:10:43.262Z,101762.53
2019-01-20T11:13:11.616Z,101765.47
2019-01-20T11:15:40.037Z,101770.29
2019-01-20T11:18:08.344Z,101780.77
2019-01-20T11:20:36.616Z,101772.06
2019-01-20T11:23:05.382Z,101776.42
2019-01-20T11:25:37.333Z,101770.29
2019-01-20T11:28:05.794Z,101776.05
2019-01-20T11:30:34.784Z,101773.86
2019-01-20T11:33:05.228Z,101791.33
2019-01-20T11:35:34.920Z,101774.50
2019-01-20T11:38:03.346Z,101774.45
2019-01-20T11:40:31.782Z,101772.55
2019-01-20T11:43:00.043Z,101781.48
2019-01-20T11:45:31.096Z,101786.19
2019-01-20T11:47:59.540Z,101783.55
2019-01-20T11:50:27.960Z,101779.43
2019-01-20T11:52:56.437Z,101785.86
2019-01-20T11:55:25.142Z,101787.70
2019-01-20T11:57:53.569Z,101792.47
2019-01-20T12:00:28.260Z,101790.05
2019-01-20T12:02:59.061Z,101791.20
2019-01-20T12:05:27.520Z,101799.66
2019-01-20T12:08:01.276Z,101792.41
2019-01-20T12:10:29.932Z,101788.05
2019-01-20T12:13:00.085Z,101795.98
2019-01-20T12:15:29.457Z,101797.80
2019-01-20T12:17:57.825Z,101800.37
2019-01-20T12:20:27.105Z,101802.34
2019-01-20T12:22:55.543Z,101796.74
2019-01-20T12:25:23.919Z,101791.72
2019-01-20T12:27:52.332Z,101797.94
2019-01-20T12:30:29.646Z,101796.75
2019-01-20T12:32:58.137Z,101790.77
2019-01-20T12:35:26.519Z,101787.70
2019-01-20T12:37:54.923Z,101789.82
2019-01-20T12:40:26.480Z,101787.99
2019-01-20T12:42:54.818Z,101791.64
2019-01-20T12:45:23.198Z,101789.13
2019-01-20T12:47:51.595Z,101796.20
2019-01-20T12:50:19.924Z,101793.81
2019-01-20T12:52:48.273Z,101788.70
2019-01-20T12:55:16.721Z,101788.05
2019-01-20T12:57:45.667Z,101789.44
2019-01-20T13:00:18.126Z,101790.44
2019-01-20T13:02:46.691Z,101790.07
2019-01-20T13:05:15.978Z,101795.47
2019-01-20T13:07:48.446Z,101793.09
2019-01-20T13:10:19.660Z,101796.92
2019-01-20T13:12:48.101Z,101799.06
2019-01-20T13:15:19.965Z,101794.05
2019-01-20T13:17:48.438Z,101804.77
2019-01-20T13:20:23.314Z,101800.65
2019-01-20T13:22:52.518Z,101796.39
2019-01-20T13:25:24.372Z,101800.22
2019-01-20T13:27:53.905Z,101805.41
2019-01-20T13:30:25.673Z,101805.52
2019-01-20T13:32:54.891Z,101805.77
2019-01-20T13:35:23.932Z,101811.01
2019-01-20T13:38:02.068Z,101807.45
2019-01-20T13:40:33.771Z,101805.67
2019-01-20T13:43:03.003Z,101806.52
2019-01-20T13:45:31.477Z,101808.42
2019-01-20T13:48:00.613Z,101812.87
2019-01-20T13:50:29.054Z,101812.77
2019-01-20T13:52:57.974Z,101811.64
2019-01-20T13:55:26.347Z,101809.44
2019-01-20T13:57:54.913Z,101818.45
2019-01-20T14:00:26.228Z,101817.28
2019-01-20T14:02:55.483Z,101814.62
2019-01-20T14:05:24.666Z,101824.64
2019-01-20T14:07:53.246Z,101824.74
2019-01-20T14:10:23.954Z,101815.38
2019-01-20T14:12:52.332Z,101826.23
2019-01-20T14:15:20.748Z,101820.16
2019-01-20T14:17:49.379Z,101817.59
2019-01-20T14:20:28.964Z,101821.59
2019-01-20T14:22:57.840Z,101827.91
2019-01-20T14:25:29.493Z,101817.15
2019-01-20T14:27:57.874Z,101822.70
2019-01-20T14:30:29.517Z,101830.16
2019-01-20T14:32:57.924Z,101832.52
2019-01-20T14:35:26.502Z,101832.54
2019-01-20T14:37:55.146Z,101830.55
2019-01-20T14:40:23.698Z,101585.16
2019-01-20T14:42:53.405Z,101837.42
2019-01-20T14:45:22.818Z,101835.56
2019-01-20T14:47:53.013Z,101834.76
2019-01-20T14:50:28.335Z,101828.40
2019-01-20T14:52:57.303Z,101823.09
2019-01-20T14:55:26.299Z,101826.42
2019-01-20T14:57:56.295Z,101824.93
2019-01-20T15:00:36.638Z,101561.34
2019-01-20T15:03:07.360Z,101834.23
2019-01-20T15:05:35.869Z,101840.20
2019-01-20T15:08:06.086Z,101850.20
2019-01-20T15:10:34.765Z,101843.53
2019-01-20T15:13:03.195Z,101852.33
2019-01-20T15:15:34.633Z,101853.17
2019-01-20T15:18:03.270Z,101851.79
2019-01-20T15:20:31.693Z,101852.28
2019-01-20T15:23:02.440Z,101843.67
2019-01-20T15:25:30.970Z,101854.13
2019-01-20T15:27:59.758Z,101846.30
2019-01-20T15:30:32.555Z,101844.13
2019-01-20T15:33:03.163Z,101842.44
2019-01-20T15:35:31.510Z,101844.06
2019-01-20T15:37:59.937Z,101847.72
2019-01-20T15:40:28.259Z,101859.16
2019-01-20T15:42:59.096Z,101860.29
2019-01-20T15:45:27.549Z,101870.58
2019-01-20T15:47:55.982Z,101868.20
2019-01-20T15:50:31.340Z,101856.22
2019-01-20T15:52:59.939Z,101868.14
2019-01-20T15:55:28.307Z,101865.10
2019-01-20T15:57:56.763Z,101872.89
2019-01-20T16:00:28.864Z,101880.83
2019-01-20T16:02:57.415Z,101879.11
2019-01-20T16:05:26.733Z,101882.04
2019-01-20T16:07:55.335Z,101884.83
2019-01-20T16:10:25.452Z,101895.09
2019-01-20T16:12:55.838Z,101896.73
2019-01-20T16:15:29.862Z,101903.45
2019-01-20T16:17:58.380Z,101907.75
2019-01-20T16:20:28.769Z,101898.58
2019-01-20T16:22:57.334Z,101910.95
2019-01-20T16:25:31.232Z,101904.77
2019-01-20T16:27:59.701Z,101909.52
2019-01-20T16:30:30.967Z,101910.98
2019-01-20T16:32:59.522Z,101914.23
2019-01-20T16:35:27.988Z,101919.52
2019-01-20T16:37:58.435Z,101916.82
2019-01-20T16:40:27.659Z,101913.80
2019-01-20T16:42:56.160Z,101922.97
2019-01-20T16:45:32.887Z,101929.28
2019-01-20T16:47:58.174Z,101925.38
2019-01-20T16:50:26.433Z,101933.31
2019-01-20T16:52:56.677Z,101935.07
2019-01-20T16:55:25.120Z,101935.72
2019-01-20T16:57:54.140Z,101930.55
2019-01-20T17:00:28.821Z,101936.09
2019-01-20T17:02:57.205Z,101943.94
2019-01-20T17:05:27.031Z,101936.99
2019-01-20T17:07:55.975Z,101947.08
2019-01-20T17:10:29.081Z,101948.97
2019-01-20T17:12:58.559Z,101949.70
2019-01-20T17:15:30.355Z,101953.58
2019-01-20T17:17:58.750Z,101952.97
2019-01-20T17:20:27.975Z,101953.43
2019-01-20T17:22:56.376Z,101958.83
2019-01-20T17:25:24.745Z,101958.08
2019-01-20T17:27:53.150Z,101959.89
2019-01-20T17:30:27.375Z,101981.80
2019-01-20T17:32:55.865Z,101963.70
2019-01-20T17:35:24.169Z,101963.47
2019-01-20T17:37:52.582Z,101963.43
2019-01-20T17:40:26.198Z,101963.43
2019-01-20T17:42:54.795Z,101957.98
2019-01-20T17:45:30.057Z,101965.15
2019-01-20T17:47:58.506Z,101960.78
2019-01-20T17:50:31.852Z,101966.02
2019-01-20T17:53:00.918Z,101958.92
2019-01-20T17:55:29.203Z,101959.30
2019-01-20T17:57:58.036Z,101970.78
2019-01-20T18:00:36.918Z,101974.16
2019-01-20T18:03:08.581Z,101977.72
2019-01-20T18:05:37.293Z,101974.03
2019-01-20T18:08:05.824Z,101979.61
2019-01-20T18:10:34.352Z,101981.34
2019-01-20T18:13:02.930Z,101988.39
2019-01-20T18:15:32.703Z,101988.64
2019-01-20T18:18:02.184Z,101992.55
2019-01-20T18:20:32.657Z,101995.53
2019-01-20T18:23:01.169Z,101994.20
2019-01-20T18:25:29.574Z,101996.52
2019-01-20T18:27:58.224Z,101996.45
2019-01-20T18:30:31.678Z,102002.29
2019-01-20T18:33:00.148Z,102000.83
2019-01-20T18:35:29.146Z,101999.42
2019-01-20T18:37:57.474Z,102002.89
2019-01-20T18:40:26.852Z,102007.89
2019-01-20T18:42:55.382Z,102013.09
2019-01-20T18:45:26.976Z,102017.33
2019-01-20T18:47:55.279Z,102021.29
2019-01-20T18:50:32.543Z,102026.37
2019-01-20T18:53:01.290Z,102031.66
2019-01-20T18:55:30.282Z,102035.14
2019-01-20T18:57:59.143Z,102032.98
2019-01-20T19:00:30.335Z,102032.02
2019-01-20T19:02:58.750Z,102035.30
2019-01-20T19:05:30.561Z,102035.56
2019-01-20T19:07:59.293Z,102042.14
2019-01-20T19:10:27.599Z,102044.26
2019-01-20T19:12:56.199Z,102042.96
2019-01-20T19:15:24.958Z,102049.14
2019-01-20T19:17:53.910Z,102044.48
2019-01-20T19:20:25.216Z,102043.75
2019-01-20T19:22:56.917Z,102042.70
2019-01-20T19:25:25.643Z,102051.62
2019-01-20T19:27:54.512Z,102047.29
2019-01-20T19:30:29.820Z,102055.48
2019-01-20T19:32:59.037Z,102055.11
2019-01-20T19:35:28.647Z,102062.51
2019-01-20T19:37:59.236Z,102064.09
2019-01-20T19:40:31.066Z,102067.31
2019-01-20T19:43:00.327Z,102071.59
2019-01-20T19:45:33.221Z,102087.08
2019-01-20T19:48:04.613Z,102074.88
2019-01-20T19:50:36.165Z,102073.22
2019-01-20T19:53:06.695Z,102083.16
2019-01-20T19:55:37.119Z,102077.41
2019-01-20T19:58:08.968Z,102091.09
2019-01-20T20:00:40.693Z,102075.02
2019-01-20T20:03:10.365Z,102075.55
2019-01-20T20:05:39.830Z,102076.76
2019-01-20T20:08:09.022Z,102076.17
2019-01-20T20:10:38.177Z,102077.42
2019-01-20T20:13:06.775Z,102078.27
2019-01-20T20:15:35.539Z,102076.25
2019-01-20T20:18:04.412Z,102087.07
2019-01-20T20:20:32.840Z,102086.12
2019-01-20T20:23:01.194Z,102097.78
2019-01-20T20:25:29.519Z,102097.08
2019-01-20T20:27:58.136Z,102096.71
2019-01-20T20:30:29.529Z,102102.98
2019-01-20T20:32:57.879Z,102111.13
2019-01-20T20:35:26.281Z,102111.93
2019-01-20T20:37:54.574Z,102118.61
2019-01-20T20:40:23.231Z,102120.77
2019-01-20T20:42:51.639Z,102120.66
2019-01-20T20:45:22.270Z,102117.06
2019-01-20T20:47:50.662Z,102121.68
2019-01-20T20:50:19.157Z,102127.61
2019-01-20T20:52:50.078Z,102129.06
2019-01-20T20:55:18.547Z,102133.39
2019-01-20T20:57:46.972Z,102132.29
2019-01-20T21:00:18.433Z,102133.39
2019-01-20T21:02:46.785Z,102133.41
2019-01-20T21:05:16.077Z,102134.98
2019-01-20T21:07:47.767Z,102138.57
2019-01-20T21:10:35.323Z,102143.13
2019-01-20T21:13:10.679Z,102144.31
2019-01-20T21:15:46.501Z,102141.75
2019-01-20T21:18:25.074Z,102147.40
2019-01-20T21:20:53.746Z,102149.95
2019-01-20T21:23:22.089Z,102148.03
2019-01-20T21:25:50.390Z,102146.11
2019-01-20T21:28:19.871Z,102142.13
2019-01-20T21:30:48.356Z,102150.74
2019-01-20T21:33:16.866Z,102153.41
2019-01-20T21:35:48.152Z,102149.35
2019-01-20T21:38:21.986Z,102148.08
2019-01-20T21:40:50.279Z,102146.88
2019-01-20T21:43:18.767Z,102147.38
2019-01-20T21:45:48.979Z,102150.50
2019-01-20T21:48:18.231Z,102154.70
2019-01-20T21:50:48.374Z,102156.97
2019-01-20T21:53:17.620Z,102156.39
2019-01-20T21:55:45.893Z,102158.78
2019-01-20T21:58:14.596Z,102159.97
2019-01-20T22:00:42.997Z,102164.91
2019-01-20T22:03:11.401Z,102167.65
2019-01-20T22:05:40.560Z,102166.70
2019-01-20T22:08:09.880Z,102155.67
2019-01-20T22:10:38.393Z,102156.88
2019-01-20T22:13:07.402Z,102154.59
2019-01-20T22:15:36.431Z,102162.39
2019-01-20T22:18:06.885Z,102160.70
2019-01-20T22:20:36.158Z,102165.65
2019-01-20T22:23:06.364Z,102171.98
2019-01-20T22:25:35.099Z,102176.41
2019-01-20T22:28:03.598Z,102181.10
2019-01-20T22:30:33.534Z,102186.00
2019-01-20T22:33:02.191Z,102183.37
2019-01-20T22:35:33.559Z,102192.70
2019-01-20T22:38:02.268Z,102191.38
2019-01-20T22:40:31.055Z,102193.44
2019-01-20T22:42:59.632Z,102190.20
2019-01-20T22:45:28.983Z,102189.92
2019-01-20T22:47:57.425Z,102181.91
2019-01-20T22:50:26.367Z,102191.84
2019-01-20T22:52:56.341Z,102190.43
2019-01-20T22:55:24.688Z,102190.30
2019-01-20T22:57:54.786Z,102194.72
2019-01-20T23:00:40.110Z,102197.83
2019-01-20T23:03:08.789Z,102198.67
2019-01-20T23:05:37.217Z,102197.72
2019-01-20T23:08:05.621Z,102192.69
2019-01-20T23:10:33.995Z,102200.13
2019-01-20T23:13:02.450Z,102203.09
2019-01-20T23:15:30.856Z,102207.04
2019-01-20T23:17:59.311Z,102200.78
2019-01-20T23:20:28.203Z,102198.98
2019-01-20T23:22:56.683Z,102197.66
2019-01-20T23:25:25.026Z,102201.93
2019-01-20T23:27:53.301Z,102208.88
2019-01-20T23:30:21.702Z,102197.51
2019-01-20T23:32:49.975Z,102199.76
2019-01-20T23:35:18.316Z,101989.19
2019-01-20T23:37:46.589Z,102196.96
2019-01-20T23:40:18.692Z,102195.50
2019-01-20T23:42:47.084Z,102189.16
2019-01-20T23:45:15.366Z,102195.27
2019-01-20T23:47:43.735Z,102198.58
2019-01-20T23:50:17.351Z,102203.11
2019-01-20T23:52:45.703Z,102196.53
2019-01-20T23:55:14.046Z,102195.44
2019-01-20T23:57:42.732Z,102196.25
